Time;durP1;ratioP1;P1;durP2;ratioP2;P2;SDS_P1;SDS_P2;PMS_P1;PMS_P2;Temp;Humidity;BMP_temperature;BMP_pressure;BME280_temperature;BME280_humidity;BME280_pressure;Samples;Min_cycle;Max_cycle;Signal;HPM_P1;HPM_P2
2022/09/23 00:00:43;;;;;;;2.22;1.10;;;;;;;13.18;100.00;100689.22;4837805;29;20029;-85
2022/09/23 00:03:10;;;;;;;6.45;0.88;;;;;;;13.15;100.00;100688.53;4841890;29;20077;-85
2022/09/23 00:05:39;;;;;;;4.05;1.02;;;;;;;13.14;100.00;100696.63;4847098;29;20696;-85
2022/09/23 00:08:06;;;;;;;7.63;1.25;;;;;;;13.12;100.00;100688.03;4852499;29;20021;-85
2022/09/23 00:10:35;;;;;;;6.22;0.95;;;;;;;13.08;100.00;100684.84;4844299;29;20056;-85
2022/09/23 00:13:01;;;;;;;4.15;0.70;;;;;;;13.06;99.92;100694.75;4827138;29;20026;-86
2022/09/23 00:15:28;;;;;;;5.72;1.00;;;;;;;13.01;99.79;100692.56;4844159;29;20474;-85
2022/09/23 00:17:54;;;;;;;4.40;0.70;;;;;;;12.89;99.46;100694.66;4830938;29;20128;-86
2022/09/23 00:20:20;;;;;;;6.53;1.00;;;;;;;12.81;99.49;100704.34;4829857;29;20037;-86
2022/09/23 00:22:46;;;;;;;4.43;0.82;;;;;;;12.73;99.91;100702.47;4842426;29;20102;-86
2022/09/23 00:25:11;;;;;;;4.32;0.95;;;;;;;12.65;100.00;100706.72;4813403;29;20034;-85
2022/09/23 00:27:38;;;;;;;6.32;1.05;;;;;;;12.49;99.84;100718.00;4825162;29;20035;-84
2022/09/23 00:30:06;;;;;;;5.40;1.05;;;;;;;12.38;100.00;100705.78;4823137;29;20022;-84
2022/09/23 00:32:33;;;;;;;8.70;1.08;;;;;;;12.33;100.00;100707.19;4840826;29;20044;-85
2022/09/23 00:34:59;;;;;;;3.72;0.98;;;;;;;12.29;100.00;100706.69;4841681;29;20553;-86
2022/09/23 00:37:26;;;;;;;6.55;1.35;;;;;;;12.27;100.00;100711.28;4840184;29;20098;-85
2022/09/23 00:39:52;;;;;;;2.80;0.90;;;;;;;12.20;100.00;100708.41;4827451;29;20150;-85
2022/09/23 00:42:20;;;;;;;4.50;1.02;;;;;;;12.15;100.00;100713.34;4824991;29;20038;-85
2022/09/23 00:44:52;;;;;;;5.60;1.00;;;;;;;12.08;100.00;100713.09;4842731;29;20041;-85
2022/09/23 00:47:30;;;;;;;10.88;1.25;;;;;;;12.00;100.00;100713.78;4824179;29;20402;-85
2022/09/23 00:50:13;;;;;;;6.22;1.20;;;;;;;11.96;100.00;100708.94;4825287;29;20114;-86
2022/09/23 00:52:39;;;;;;;4.55;0.90;;;;;;;11.93;100.00;100707.41;4840862;29;20025;-82
2022/09/23 00:55:10;;;;;;;6.07;1.10;;;;;;;11.94;100.00;100710.88;4820756;29;20046;-82
2022/09/23 00:57:39;;;;;;;2.85;0.60;;;;;;;11.91;100.00;100709.38;4808947;29;20037;-86
2022/09/23 01:00:06;;;;;;;3.33;0.60;;;;;;;11.86;100.00;100708.97;4822453;29;20086;-86
2022/09/23 01:02:32;;;;;;;1.73;0.70;;;;;;;11.82;100.00;100712.91;4821735;29;20070;-85
2022/09/23 01:04:59;;;;;;;8.55;1.48;;;;;;;11.79;100.00;100714.84;4817832;29;20042;-85
2022/09/23 01:07:25;;;;;;;2.70;0.68;;;;;;;11.79;100.00;100722.81;4826073;29;20041;-85
2022/09/23 01:09:52;;;;;;;14.55;1.20;;;;;;;11.71;100.00;100720.03;4836577;29;20033;-86
2022/09/23 01:12:36;;;;;;;1.88;0.80;;;;;;;11.60;100.00;100718.41;4809540;29;20025;-85
2022/09/23 01:15:14;;;;;;;2.95;1.13;;;;;;;11.54;100.00;100716.34;4845384;29;20050;-85
2022/09/23 01:17:59;;;;;;;3.67;1.08;;;;;;;11.56;100.00;100718.84;4830848;29;20053;-85
2022/09/23 01:20:43;;;;;;;4.32;1.25;;;;;;;11.51;100.00;100716.63;4823940;29;20390;-86
2022/09/23 01:23:56;;;;;;;5.25;1.00;;;;;;;11.51;100.00;100717.47;4847345;29;20073;-85
2022/09/23 01:26:59;;;;;;;5.03;1.20;;;;;;;11.44;100.00;100715.50;4780459;29;20436;-85
2022/09/23 01:29:58;;;;;;;4.82;1.08;;;;;;;11.35;99.58;100717.22;4827385;29;20048;-86
2022/09/23 01:32:48;;;;;;;3.38;1.25;;;;;;;11.25;99.53;100712.78;4805177;29;20125;-85
2022/09/23 01:35:41;;;;;;;1.90;0.82;;;;;;;11.22;100.00;100715.72;4857583;29;20041;-85
2022/09/23 01:38:20;;;;;;;3.30;1.20;;;;;;;11.18;100.00;100721.44;4847178;29;20132;-85
2022/09/23 01:41:08;;;;;;;7.00;1.52;;;;;;;11.18;100.00;100714.31;4794539;29;20435;-85
2022/09/23 01:43:46;;;;;;;3.90;0.95;;;;;;;11.14;99.79;100719.06;4835505;29;20076;-86
2022/09/23 01:46:18;;;;;;;5.85;1.10;;;;;;;11.15;100.00;100717.25;4825177;29;20034;-86
2022/09/23 01:48:53;;;;;;;4.35;1.13;;;;;;;11.14;100.00;100715.59;4818690;29;20471;-85
2022/09/23 01:51:41;;;;;;;3.25;1.00;;;;;;;11.10;99.43;100715.03;4814502;29;20364;-84
2022/09/23 01:54:28;;;;;;;7.72;1.55;;;;;;;11.04;99.76;100718.22;4847790;29;20575;-86
2022/09/23 01:57:06;;;;;;;1.65;0.68;;;;;;;10.95;100.00;100722.56;4854328;29;20097;-86
2022/09/23 02:00:08;;;;;;;4.85;0.88;;;;;;;10.87;100.00;100719.78;4848245;29;20033;-86
2022/09/23 02:02:58;;;;;;;6.40;1.30;;;;;;;10.87;100.00;100723.25;4826305;29;20025;-86
2022/09/23 02:05:33;;;;;;;5.43;1.02;;;;;;;10.87;100.00;100711.84;4838249;29;20079;-86
2022/09/23 02:08:07;;;;;;;7.40;1.77;;;;;;;10.91;100.00;100718.50;4846011;29;20045;-86
2022/09/23 02:10:53;;;;;;;1.88;0.90;;;;;;;10.91;100.00;100716.72;4835610;29;20483;-86
2022/09/23 02:13:27;;;;;;;3.80;1.15;;;;;;;10.99;100.00;100710.72;4845788;29;20037;-86
2022/09/23 02:15:59;;;;;;;6.18;1.08;;;;;;;11.03;100.00;100720.06;4817759;29;20049;-86
2022/09/23 02:18:31;;;;;;;7.93;1.10;;;;;;;11.07;100.00;100711.84;4825491;29;20068;-86
2022/09/23 02:21:05;;;;;;;3.03;1.20;;;;;;;11.12;100.00;100705.13;4824110;29;20033;-85
2022/09/23 02:23:41;;;;;;;5.85;1.05;;;;;;;11.11;100.00;100711.41;4822945;29;20040;-85
2022/09/23 02:26:26;;;;;;;4.25;1.40;;;;;;;11.04;100.00;100703.22;4843716;29;20054;-85
2022/09/23 02:28:55;;;;;;;7.85;1.08;;;;;;;11.01;100.00;100700.00;4822307;29;20057;-85
2022/09/23 02:31:36;;;;;;;1.23;0.93;;;;;;;10.97;100.00;100699.47;4846691;29;20047;-86
2022/09/23 02:34:11;;;;;;;2.92;1.02;;;;;;;10.90;100.00;100706.28;4859023;29;20058;-86
2022/09/23 02:36:49;;;;;;;6.22;1.15;;;;;;;10.86;100.00;100700.41;4846546;29;20029;-86
2022/09/23 02:39:19;;;;;;;4.97;1.10;;;;;;;10.84;100.00;100702.38;4822263;29;20047;-86
2022/09/23 02:42:08;;;;;;;11.15;1.50;;;;;;;10.73;100.00;100700.72;4820383;29;20045;-86
2022/09/23 02:44:35;;;;;;;8.00;1.73;;;;;;;10.67;100.00;100698.63;4839394;29;20038;-86
2022/09/23 02:47:01;;;;;;;7.13;1.02;;;;;;;10.65;100.00;100701.38;4822788;29;20040;-86
2022/09/23 02:49:29;;;;;;;3.72;1.52;;;;;;;10.69;100.00;100701.16;4837705;29;20767;-86
2022/09/23 02:51:59;;;;;;;3.55;0.90;;;;;;;10.66;100.00;100699.59;4829670;29;20038;-87
2022/09/23 02:54:27;;;;;;;2.40;0.98;;;;;;;10.69;100.00;100701.16;4828589;29;20041;-86
2022/09/23 02:56:53;;;;;;;4.88;1.42;;;;;;;10.70;100.00;100701.00;4826333;29;20046;-86
2022/09/23 02:59:21;;;;;;;2.53;0.98;;;;;;;10.71;100.00;100705.31;4826423;29;20046;-86
2022/09/23 03:02:16;;;;;;;4.78;1.20;;;;;;;10.71;100.00;100707.94;4836820;29;20076;-87
2022/09/23 03:05:23;;;;;;;1.15;0.73;;;;;;;10.70;100.00;100714.22;4829241;29;20069;-88
2022/09/23 03:08:11;;;;;;;3.90;0.85;;;;;;;10.65;100.00;100703.22;4828699;29;20036;-87
2022/09/23 03:10:46;;;;;;;4.65;1.50;;;;;;;10.64;100.00;100705.03;4807940;29;20037;-87
2022/09/23 03:13:35;;;;;;;27.38;3.10;;;;;;;10.58;100.00;100700.28;4850085;29;20411;-87
2022/09/23 03:16:13;;;;;;;30.63;1.88;;;;;;;10.56;100.00;100704.88;4836303;29;20033;-85
2022/09/23 03:18:49;;;;;;;5.80;0.85;;;;;;;10.54;100.00;100707.66;4813564;29;20056;-82
2022/09/23 03:21:37;;;;;;;4.30;0.98;;;;;;;10.52;100.00;100711.41;4842154;29;20526;-82
2022/09/23 03:24:07;;;;;;;6.32;0.90;;;;;;;10.45;100.00;100705.81;4825779;29;20049;-86
2022/09/23 03:26:36;;;;;;;2.78;0.80;;;;;;;10.46;100.00;100698.72;4825444;29;20128;-86
2022/09/23 03:29:07;;;;;;;4.32;0.80;;;;;;;10.44;100.00;100698.84;4821014;29;20466;-87
2022/09/23 03:31:35;;;;;;;0.52;0.40;;;;;;;10.41;100.00;100710.53;4835705;29;20033;-87
2022/09/23 03:34:04;;;;;;;0.77;0.30;;;;;;;10.39;100.00;100711.63;4828422;29;20123;-87
2022/09/23 03:36:56;;;;;;;0.73;0.30;;;;;;;10.37;100.00;100709.13;4821606;29;20040;-87
2022/09/23 03:39:39;;;;;;;3.72;0.90;;;;;;;10.25;100.00;100713.72;4812031;29;20034;-87
2022/09/23 03:42:36;;;;;;;6.20;1.58;;;;;;;10.17;100.00;100718.81;4841299;29;20030;-87
2022/09/23 03:45:07;;;;;;;5.35;0.65;;;;;;;10.17;100.00;100717.03;4833756;29;20048;-88
2022/09/23 03:47:34;;;;;;;1.60;0.75;;;;;;;10.14;100.00;100727.03;4829077;29;20501;-88
2022/09/23 03:50:00;;;;;;;125.60;3.97;;;;;;;10.08;100.00;100728.38;4814442;29;20029;-88
2022/09/23 03:52:27;;;;;;;2.47;0.80;;;;;;;9.91;100.00;100722.78;4835465;29;20520;-88
2022/09/23 03:54:53;;;;;;;21.90;1.13;;;;;;;9.89;100.00;100726.53;4836780;29;20075;-89
2022/09/23 03:57:21;;;;;;;4.65;0.60;;;;;;;9.87;100.00;100728.44;4846124;29;20061;-88
2022/09/23 03:59:50;;;;;;;3.65;0.68;;;;;;;9.83;100.00;100724.38;4844761;29;20101;-87
2022/09/23 04:02:18;;;;;;;1.88;0.60;;;;;;;9.82;100.00;100723.56;4829007;29;20090;-88
2022/09/23 04:04:44;;;;;;;4.65;0.70;;;;;;;9.78;100.00;100728.28;4836254;29;20103;-88
2022/09/23 04:07:12;;;;;;;9.15;0.65;;;;;;;9.72;100.00;100728.81;4844038;29;20045;-88
2022/09/23 04:09:38;;;;;;;10.98;0.57;;;;;;;9.68;100.00;100722.94;4829051;29;20025;-87
2022/09/23 04:12:04;;;;;;;62.35;2.25;;;;;;;9.67;100.00;100728.34;4830575;29;20029;-88
2022/09/23 04:14:30;;;;;;;26.80;1.20;;;;;;;9.70;100.00;100730.72;4825133;29;20033;-88
2022/09/23 04:16:56;;;;;;;56.22;2.28;;;;;;;9.64;100.00;100728.63;4823832;29;20030;-88
2022/09/23 04:19:22;;;;;;;144.63;3.17;;;;;;;9.62;100.00;100739.31;4859685;29;20029;-89
2022/09/23 04:21:48;;;;;;;145.20;3.60;;;;;;;9.62;100.00;100739.31;4838301;29;20045;-88
2022/09/23 04:24:15;;;;;;;12.63;1.20;;;;;;;9.60;100.00;100741.25;4830406;29;20034;-88
2022/09/23 04:26:42;;;;;;;46.00;1.80;;;;;;;9.62;100.00;100741.13;4827302;29;20093;-88
2022/09/23 04:29:09;;;;;;;36.03;1.52;;;;;;;9.67;100.00;100737.13;4818442;29;20487;-89
2022/09/23 04:31:35;;;;;;;97.63;2.40;;;;;;;9.70;100.00;100736.00;4845455;29;20094;-88
2022/09/23 04:34:01;;;;;;;177.52;4.13;;;;;;;9.66;100.00;100729.31;4860671;29;20046;-88
2022/09/23 04:36:29;;;;;;;50.50;1.65;;;;;;;9.61;100.00;100734.16;4816078;29;20044;-88
2022/09/23 04:38:55;;;;;;;53.00;1.70;;;;;;;9.59;100.00;100744.84;4828945;29;20589;-89
2022/09/23 04:41:21;;;;;;;45.03;1.67;;;;;;;9.60;100.00;100741.25;4841836;29;20486;-88
2022/09/23 04:43:47;;;;;;;190.57;3.65;;;;;;;9.62;100.00;100741.94;4840926;29;20038;-88
2022/09/23 04:46:14;;;;;;;5.80;0.88;;;;;;;9.63;100.00;100743.63;4837691;29;20075;-88
2022/09/23 04:48:41;;;;;;;14.50;0.88;;;;;;;9.67;100.00;100739.75;4808329;29;20479;-88
2022/09/23 04:51:12;;;;;;;60.10;2.03;;;;;;;9.72;100.00;100744.63;4823873;29;20502;-88
2022/09/23 04:53:40;;;;;;;3.42;0.50;;;;;;;9.69;100.00;100739.63;4828613;29;20067;-88
2022/09/23 04:56:14;;;;;;;10.65;0.63;;;;;;;9.68;100.00;100736.13;4828456;29;20051;-88
2022/09/23 04:58:41;;;;;;;2.20;0.50;;;;;;;9.67;100.00;100738.91;4832401;29;20045;-88
2022/09/23 05:01:10;;;;;;;6.40;0.47;;;;;;;9.67;100.00;100734.47;4812927;29;20033;-88
2022/09/23 05:03:37;;;;;;;10.95;0.80;;;;;;;9.66;100.00;100724.03;4817416;29;20132;-88
2022/09/23 05:06:02;;;;;;;4.75;0.52;;;;;;;9.60;100.00;100724.56;4856676;29;20026;-87
2022/09/23 05:08:28;;;;;;;3.13;0.40;;;;;;;9.48;100.00;100726.44;4823797;29;20097;-87
2022/09/23 05:10:59;;;;;;;3.03;0.57;;;;;;;9.46;100.00;100738.94;4843452;29;20082;-87
2022/09/23 05:13:25;;;;;;;1.67;0.30;;;;;;;9.44;100.00;100733.81;4844839;29;20030;-88
2022/09/23 05:15:58;;;;;;;0.40;0.40;;;;;;;9.48;100.00;100723.81;4827991;29;20037;-87
2022/09/23 05:18:24;;;;;;;0.65;0.32;;;;;;;9.47;100.00;100737.97;4828500;29;20041;-88
2022/09/23 05:20:54;;;;;;;1.38;0.60;;;;;;;9.40;100.00;100727.94;4808051;29;20041;-88
2022/09/23 05:23:21;;;;;;;0.50;0.45;;;;;;;9.32;100.00;100726.91;4846609;29;20498;-87
2022/09/23 05:25:47;;;;;;;0.60;0.50;;;;;;;9.28;100.00;100729.81;4821408;29;20499;-88
2022/09/23 05:28:18;;;;;;;3.55;0.60;;;;;;;9.26;100.00;100738.81;4829850;29;20037;-88
2022/09/23 05:30:45;;;;;;;0.40;0.40;;;;;;;9.20;100.00;100742.81;4845064;29;20116;-88
2022/09/23 05:33:11;;;;;;;0.30;0.20;;;;;;;9.22;100.00;100745.31;4817842;29;20482;-89
2022/09/23 05:35:37;;;;;;;5.30;0.55;;;;;;;9.15;100.00;100740.56;4835248;29;20038;-89
2022/09/23 05:38:02;;;;;;;10.13;0.63;;;;;;;9.02;100.00;100747.78;4832637;29;20091;-89
2022/09/23 05:40:28;;;;;;;156.05;3.92;;;;;;;8.92;100.00;100753.81;4829860;29;20041;-90
2022/09/23 05:42:55;;;;;;;173.75;4.10;;;;;;;8.85;100.00;100757.09;4828152;29;20044;-89
2022/09/23 05:45:21;;;;;;;184.77;4.00;;;;;;;8.76;100.00;100754.22;4824887;29;20045;-90
2022/09/23 05:47:46;;;;;;;236.45;5.25;;;;;;;8.77;100.00;100758.56;4814789;29;20045;-82
2022/09/23 05:50:12;;;;;;;34.55;1.45;;;;;;;8.81;100.00;100751.22;4848108;29;20041;-82
2022/09/23 05:52:38;;;;;;;1.98;0.73;;;;;;;8.85;100.00;100760.56;4826973;29;20073;-89
2022/09/23 05:55:04;;;;;;;6.97;0.60;;;;;;;8.90;100.00;100757.56;4821394;29;20029;-88
2022/09/23 05:57:33;;;;;;;27.67;0.98;;;;;;;8.97;100.00;100766.63;4850515;29;20521;-89
2022/09/23 05:59:58;;;;;;;5.25;0.73;;;;;;;8.98;100.00;100759.56;4831662;29;20185;-90
2022/09/23 06:02:24;;;;;;;14.60;0.82;;;;;;;8.99;100.00;100763.88;4844356;29;20038;-90
2022/09/23 06:04:50;;;;;;;27.73;0.88;;;;;;;8.99;100.00;100763.88;4852007;29;20045;-89
2022/09/23 06:07:15;;;;;;;10.40;0.95;;;;;;;9.04;100.00;100767.81;4831439;29;20070;-89
2022/09/23 06:09:41;;;;;;;2.88;0.65;;;;;;;9.06;100.00;100767.69;4830930;29;20033;-90
2022/09/23 06:12:07;;;;;;;12.30;0.98;;;;;;;9.11;100.00;100769.94;4826981;29;20034;-90
2022/09/23 06:14:33;;;;;;;8.23;1.20;;;;;;;9.12;100.00;100768.97;4828596;29;20029;-89
2022/09/23 06:16:58;;;;;;;8.90;0.77;;;;;;;9.15;100.00;100758.16;4819899;29;20040;-89
2022/09/23 06:19:24;;;;;;;89.68;1.90;;;;;;;9.12;100.00;100772.44;4842694;29;20042;-89
2022/09/23 06:21:50;;;;;;;39.58;1.10;;;;;;;9.07;100.00;100782.53;4840416;29;20101;-89
2022/09/23 06:24:16;;;;;;;50.25;1.50;;;;;;;9.01;100.00;100786.53;4809176;29;20025;-89
2022/09/23 06:26:41;;;;;;;26.10;1.00;;;;;;;8.95;100.00;100783.53;4812314;29;20074;-90
2022/09/23 06:29:10;;;;;;;22.98;1.13;;;;;;;8.95;100.00;100784.38;4844459;29;20033;-88
2022/09/23 06:31:37;;;;;;;3.05;0.68;;;;;;;8.98;100.00;100793.84;4848822;29;20033;-90
2022/09/23 06:34:02;;;;;;;2.58;0.80;;;;;;;8.98;100.00;100778.84;4846231;29;20383;-89
2022/09/23 06:36:28;;;;;;;6.25;1.10;;;;;;;9.03;100.00;100789.03;4835917;29;20041;-89
2022/09/23 06:38:54;;;;;;;28.33;0.93;;;;;;;9.06;100.00;100791.41;4832348;29;20048;-89
2022/09/23 06:41:20;;;;;;;8.70;0.68;;;;;;;9.05;100.00;100795.00;4835229;29;20043;-89
2022/09/23 06:43:46;;;;;;;0.50;0.50;;;;;;;9.11;100.00;100791.84;4831288;29;20036;-90
2022/09/23 06:46:14;;;;;;;2.40;0.60;;;;;;;9.15;100.00;100788.03;4828723;29;20029;-89
2022/09/23 06:48:42;;;;;;;1.05;0.45;;;;;;;9.22;100.00;100793.59;4843566;29;20052;-89
2022/09/23 06:51:10;;;;;;;2.28;0.40;;;;;;;9.26;100.00;100787.13;4845266;29;20037;-89
2022/09/23 06:53:36;;;;;;;1.30;0.60;;;;;;;9.31;100.00;100794.66;4828543;29;20542;-89
2022/09/23 06:56:04;;;;;;;4.28;0.52;;;;;;;9.29;100.00;100802.69;4836214;29;20044;-89
2022/09/23 06:58:31;;;;;;;3.13;0.60;;;;;;;9.25;100.00;100801.25;4830853;29;20069;-89
2022/09/23 07:01:01;;;;;;;2.47;0.45;;;;;;;9.33;100.00;100802.44;4859098;29;20100;-89
2022/09/23 07:03:27;;;;;;;4.80;0.70;;;;;;;9.39;100.00;100791.38;4843902;29;20105;-89
2022/09/23 07:05:55;;;;;;;2.65;0.93;;;;;;;9.48;100.00;100789.75;4831532;29;20041;-89
2022/09/23 07:08:21;;;;;;;2.20;1.02;;;;;;;9.58;100.00;100785.41;4828492;29;20076;-89
2022/09/23 07:10:55;;;;;;;2.25;0.70;;;;;;;9.68;100.00;100798.66;4830271;29;20029;-90
2022/09/23 07:13:21;;;;;;;3.28;0.60;;;;;;;9.74;100.00;100799.94;4830407;29;20108;-90
2022/09/23 07:15:49;;;;;;;2.05;0.52;;;;;;;9.80;100.00;100797.63;4828450;29;20037;-90
2022/09/23 07:18:15;;;;;;;4.70;0.90;;;;;;;9.89;100.00;100800.44;4830161;29;20044;-89
2022/09/23 07:20:41;;;;;;;9.57;1.10;;;;;;;9.90;100.00;100799.47;4814659;29;20033;-89
2022/09/23 07:23:06;;;;;;;3.92;0.60;;;;;;;9.88;100.00;100804.88;4845130;29;20033;-90
2022/09/23 07:25:33;;;;;;;2.75;0.60;;;;;;;9.88;100.00;100804.03;4816339;29;20045;-90
2022/09/23 07:27:59;;;;;;;1.00;0.60;;;;;;;9.91;100.00;100798.50;4844602;29;20056;-90
2022/09/23 07:30:25;;;;;;;4.32;0.70;;;;;;;9.95;100.00;100809.63;4850159;29;20524;-88
2022/09/23 07:32:52;;;;;;;0.73;0.50;;;;;;;9.97;100.00;100805.88;4829275;29;20033;-90
2022/09/23 07:35:18;;;;;;;0.95;0.50;;;;;;;10.00;100.00;100807.44;4812665;29;20052;-89
2022/09/23 07:37:44;;;;;;;2.17;0.40;;;;;;;10.05;100.00;100815.78;4828199;29;20037;-89
2022/09/23 07:40:11;;;;;;;5.30;0.65;;;;;;;10.07;100.00;100816.50;4844320;29;20033;-89
2022/09/23 07:42:39;;;;;;;1.98;1.02;;;;;;;10.12;100.00;100810.84;4827056;29;20033;-90
2022/09/23 07:45:07;;;;;;;4.63;1.02;;;;;;;10.18;100.00;100819.06;4839568;29;20116;-88
2022/09/23 07:47:34;;;;;;;1.83;0.80;;;;;;;10.26;100.00;100818.41;4826866;29;20041;-89
2022/09/23 07:50:00;;;;;;;6.93;0.90;;;;;;;10.39;100.00;100817.34;4825957;29;20029;-89
2022/09/23 07:52:25;;;;;;;4.95;0.93;;;;;;;10.52;100.00;100819.78;4811544;29;20029;-89
2022/09/23 07:54:51;;;;;;;4.32;0.98;;;;;;;10.68;100.00;100819.25;4829618;29;20054;-89
2022/09/23 07:57:17;;;;;;;6.43;1.55;;;;;;;10.80;100.00;100822.59;4843940;29;20037;-89
2022/09/23 07:59:43;;;;;;;8.07;1.23;;;;;;;10.94;100.00;100821.38;4843500;29;20044;-88
2022/09/23 08:02:10;;;;;;;6.47;1.38;;;;;;;11.07;100.00;100818.47;4825890;29;20123;-89
2022/09/23 08:04:37;;;;;;;6.82;1.15;;;;;;;11.20;100.00;100812.06;4855291;29;20101;-89
2022/09/23 08:07:04;;;;;;;4.80;1.13;;;;;;;11.35;100.00;100812.50;4843532;29;20033;-89
2022/09/23 08:09:40;;;;;;;6.78;1.00;;;;;;;11.48;100.00;100820.97;4833235;29;20387;-89
2022/09/23 08:12:07;;;;;;;13.98;1.42;;;;;;;11.57;100.00;100818.44;4843642;29;20097;-89
2022/09/23 08:14:32;;;;;;;10.60;1.15;;;;;;;11.61;100.00;100827.81;4819140;29;20119;-88
2022/09/23 08:16:58;;;;;;;4.55;0.98;;;;;;;11.65;100.00;100819.44;4832628;29;20041;-88
2022/09/23 08:19:24;;;;;;;5.30;1.08;;;;;;;11.79;100.00;100822.59;4831367;29;20041;-88
2022/09/23 08:21:51;;;;;;;8.50;1.20;;;;;;;11.87;100.00;100819.22;4841807;29;20072;-88
2022/09/23 08:24:19;;;;;;;3.47;0.80;;;;;;;11.96;100.00;100823.66;4832421;29;20048;-89
2022/09/23 08:26:47;;;;;;;7.13;0.80;;;;;;;12.03;100.00;100826.56;4819908;29;20041;-87
2022/09/23 08:29:15;;;;;;;4.60;0.85;;;;;;;12.12;100.00;100823.09;4842176;29;20047;-88
2022/09/23 08:31:41;;;;;;;3.85;0.80;;;;;;;12.18;100.00;100831.44;4828250;29;20062;-87
2022/09/23 08:34:07;;;;;;;6.47;1.13;;;;;;;12.24;100.00;100822.91;4844568;29;20041;-86
2022/09/23 08:36:34;;;;;;;3.40;0.70;;;;;;;12.32;100.00;100832.78;4823649;29;20504;-87
2022/09/23 08:39:00;;;;;;;6.35;0.90;;;;;;;12.37;100.00;100828.72;4851992;29;20040;-86
2022/09/23 08:41:44;;;;;;;7.97;1.00;;;;;;;12.44;100.00;100826.28;4827357;29;20088;-87
2022/09/23 08:44:18;;;;;;;3.53;0.55;;;;;;;12.50;100.00;100828.34;4841129;29;20034;-86
2022/09/23 08:47:14;;;;;;;7.15;0.88;;;;;;;12.56;100.00;100829.59;4827863;29;20384;-86
2022/09/23 08:49:50;;;;;;;6.97;0.98;;;;;;;12.60;100.00;100830.97;4843095;29;20471;-86
2022/09/23 08:52:31;;;;;;;5.30;0.80;;;;;;;12.64;100.00;100831.50;4819211;29;20034;-86
2022/09/23 08:54:57;;;;;;;3.38;0.70;;;;;;;12.68;100.00;100827.56;4843240;29;20030;-86
2022/09/23 08:57:44;;;;;;;6.15;0.55;;;;;;;12.72;100.00;100834.25;4841057;29;20558;-87
2022/09/23 09:00:27;;;;;;;4.82;0.73;;;;;;;12.76;100.00;100837.44;4815119;29;20186;-87
2022/09/23 09:02:54;;;;;;;3.97;0.80;;;;;;;12.79;100.00;100837.13;4831853;29;20041;-86
2022/09/23 09:05:25;;;;;;;4.63;0.73;;;;;;;12.82;100.00;100836.00;4834440;29;20033;-85
2022/09/23 09:07:56;;;;;;;5.80;0.75;;;;;;;12.78;100.00;100836.31;4833506;29;20067;-86
2022/09/23 09:10:25;;;;;;;9.10;0.70;;;;;;;12.82;100.00;100833.34;4830204;29;20383;-86
2022/09/23 09:13:18;;;;;;;8.38;0.93;;;;;;;12.89;100.00;100839.72;4842685;29;20037;-86
2022/09/23 09:15:51;;;;;;;2.72;0.77;;;;;;;12.95;100.00;100843.63;4834983;29;20038;-86
2022/09/23 09:18:22;;;;;;;11.25;1.10;;;;;;;12.98;100.00;100836.16;4831536;29;20074;-86
2022/09/23 09:21:13;;;;;;;5.18;0.80;;;;;;;13.00;100.00;100839.50;4845477;29;20036;-87
2022/09/23 09:23:38;;;;;;;5.93;0.63;;;;;;;13.07;100.00;100836.25;4845797;29;20513;-85
2022/09/23 09:26:09;;;;;;;5.20;0.70;;;;;;;13.19;100.00;100834.19;4811930;29;20041;-86
2022/09/23 09:29:06;;;;;;;4.63;0.52;;;;;;;13.26;100.00;100838.78;4826746;29;20045;-86
2022/09/23 09:31:40;;;;;;;8.57;1.33;;;;;;;13.31;100.00;100835.66;4824763;29;20045;-85
2022/09/23 09:34:28;;;;;;;5.70;1.00;;;;;;;13.30;100.00;100825.19;4821952;29;20071;-84
2022/09/23 09:37:05;;;;;;;10.60;1.05;;;;;;;13.33;100.00;100831.00;4826599;29;20090;-85
2022/09/23 09:39:33;;;;;;;10.23;0.90;;;;;;;13.38;100.00;100835.84;4834407;29;20029;-85
2022/09/23 09:41:59;;;;;;;6.38;0.90;;;;;;;13.43;100.00;100832.75;4832080;29;20038;-85
2022/09/23 09:44:54;;;;;;;6.80;0.68;;;;;;;13.53;100.00;100833.53;4790330;29;20074;-86
2022/09/23 09:47:58;;;;;;;5.57;0.80;;;;;;;13.58;100.00;100831.25;4844445;29;20045;-85
2022/09/23 09:50:42;;;;;;;2.85;0.60;;;;;;;13.65;100.00;100828.78;4829076;29;20120;-85
2022/09/23 09:53:23;;;;;;;4.95;1.23;;;;;;;13.79;100.00;100829.22;4845316;29;20038;-89
2022/09/23 09:55:57;;;;;;;5.38;0.82;;;;;;;13.86;100.00;100823.13;4823816;29;20132;-86
2022/09/23 09:58:24;;;;;;;4.13;0.80;;;;;;;13.98;100.00;100834.31;4808517;29;20046;-87
2022/09/23 10:00:51;;;;;;;3.25;0.50;;;;;;;14.09;100.00;100825.25;4816149;29;20042;-86
2022/09/23 10:03:34;;;;;;;7.78;0.85;;;;;;;14.24;100.00;100827.31;4847472;29;20104;-86
2022/09/23 10:06:13;;;;;;;8.98;1.00;;;;;;;14.37;100.00;100826.88;4848814;29;20044;-86
2022/09/23 10:08:39;;;;;;;6.05;0.73;;;;;;;14.44;100.00;100822.59;4829506;29;20124;-86
2022/09/23 10:11:16;;;;;;;4.63;1.00;;;;;;;14.51;100.00;100828.06;4826727;29;20145;-86
2022/09/23 10:14:09;;;;;;;5.85;0.98;;;;;;;14.36;100.00;100828.72;4843482;29;20048;-86
2022/09/23 10:16:36;;;;;;;4.55;0.40;;;;;;;14.20;100.00;100828.63;4817169;29;20040;-86
2022/09/23 10:19:03;;;;;;;1.85;0.40;;;;;;;14.01;100.00;100825.22;4828720;29;20546;-86
2022/09/23 10:21:36;;;;;;;6.40;1.10;;;;;;;13.89;100.00;100830.78;4844996;29;20117;-87
2022/09/23 10:24:05;;;;;;;3.83;0.57;;;;;;;13.74;100.00;100829.69;4831000;29;20052;-87
2022/09/23 10:26:53;;;;;;;5.13;0.82;;;;;;;13.73;100.00;100822.69;4838816;29;20378;-87
2022/09/23 10:29:32;;;;;;;7.30;0.88;;;;;;;13.88;100.00;100823.81;4832931;29;20477;-86
2022/09/23 10:32:18;;;;;;;4.93;0.70;;;;;;;14.01;100.00;100814.59;4838912;29;20394;-85
2022/09/23 10:34:47;;;;;;;9.57;0.68;;;;;;;14.16;100.00;100821.97;4822490;29;20110;-85
2022/09/23 10:37:36;;;;;;;6.18;0.93;;;;;;;14.18;98.68;100820.81;4831412;29;20040;-83
2022/09/23 10:49:18;;;;;;;2.25;0.43;;;;;;;14.57;92.72;100815.97;4821112;29;20551;-85
2022/09/23 10:52:21;;;;;;;6.10;0.68;;;;;;;14.52;92.75;100814.63;4840096;29;20038;-86
2022/09/23 10:55:17;;;;;;;3.15;0.60;;;;;;;14.56;92.21;100816.94;4813028;29;20485;-86
2022/09/23 10:57:43;;;;;;;;;;;;;;;14.60;91.75;100819.16;4830203;29;20037;-84
2022/09/23 11:00:27;;;;;;;2.42;0.45;;;;;;;14.88;92.91;100810.91;4801669;29;19919;-87
2022/09/23 11:03:14;;;;;;;2.20;0.60;;;;;;;14.93;89.27;100804.25;4848998;29;20052;-86
2022/09/23 11:05:51;;;;;;;1.58;0.32;;;;;;;14.81;89.15;100807.22;4813586;29;20047;-86
2022/09/23 11:08:42;;;;;;;3.83;0.70;;;;;;;14.62;87.68;100809.16;4855618;29;20042;-85
2022/09/23 11:11:26;;;;;;;1.95;0.40;;;;;;;14.58;88.82;100805.16;4830989;29;20044;-84
2022/09/23 11:13:52;;;;;;;2.28;0.40;;;;;;;14.78;89.71;100806.72;4828110;29;20053;-85
2022/09/23 11:16:36;;;;;;;4.85;0.75;;;;;;;15.02;88.17;100807.78;4832900;29;20045;-85
2022/09/23 11:19:23;;;;;;;3.03;0.57;;;;;;;15.20;86.96;100804.94;4812931;29;20055;-86
2022/09/23 11:22:35;;;;;;;3.42;0.47;;;;;;;15.41;85.12;100804.47;4819802;29;20360;-85
2022/09/23 11:25:04;;;;;;;6.03;0.57;;;;;;;15.55;85.19;100796.78;4798319;29;20037;-86
2022/09/23 11:27:48;;;;;;;1.83;0.60;;;;;;;15.68;83.95;100796.25;4847007;29;20045;-85
2022/09/23 11:30:18;;;;;;;0.82;0.43;;;;;;;15.66;81.35;100814.25;4822764;29;20550;-86
2022/09/23 11:32:50;;;;;;;1.65;0.30;;;;;;;15.52;81.20;100805.94;4841546;29;20030;-89
2022/09/23 11:35:20;;;;;;;4.47;0.65;;;;;;;15.34;80.98;100814.09;4822264;29;20062;-86
2022/09/23 11:37:50;;;;;;;3.33;0.30;;;;;;;15.30;81.72;100810.13;4820986;29;20072;-85
2022/09/23 11:40:18;;;;;;;2.03;0.60;;;;;;;15.19;80.60;100809.47;4834163;29;20384;-85
2022/09/23 11:43:22;;;;;;;4.45;0.50;;;;;;;15.05;81.14;100812.78;4807214;29;20037;-84
2022/09/23 11:45:57;;;;;;;8.70;0.60;;;;;;;14.99;81.47;100799.13;4826273;29;20042;-86
2022/09/23 11:48:38;;;;;;;1.88;0.40;;;;;;;14.94;81.49;100813.94;4817013;29;20041;-87
2022/09/23 11:51:15;;;;;;;6.95;0.85;;;;;;;14.86;81.69;100804.91;4841124;29;20195;-84
2022/09/23 11:54:15;;;;;;;1.58;0.22;;;;;;;14.90;81.88;100809.91;4842211;29;20053;-83